»·PEaware :: ASA636 KSEA-KPHX

ASA636 :: KSEA-KPHX

FLIGHT INFORMATION

Flight Status: Arrived
Operator:
Alaska Airlines
More flights by this operator :: More flights under this callsign
Pilot: Kevin D. (15651)
Aircraft: BOEING 737-800
(B738)
More flights by this aircraft type
Origin: KSEA Seattle-Tacoma Intl
United States
Destination: KPHX Phoenix Sky Harbor Intl
United States
More flights between these airports :: More routes between these airports
Route: + / ILR180008 BERYL CORKR TENTS BRUSR1
File this flight plan on PilotEdge
Remarks:
Altitude:
(Current/Filed)
37,000ft
Speed:
(Current/Filed)
410kts
Departed: 15-Sep-17 07:19 PM
Arrived: 15-Sep-17 09:48 PM
Distance/Time
Traveled:
961nm/2:29
Distance/Time
To Go:
Arrived

Flight Plot

Page will automatically refresh every two minutes.

Flight plan parsing failed; only flown route is shown


Map Options




Map Legend


Flown Route
Filed Route
Departure Airport
Arrival Airport
Navaid (VOR, NDB)
Fix

Horizontal Profiles

Position Reports

Time Latitude Longitude Heading Altitude Ground
Speed
15-Sep-17 18:58 47.446608 -122.303350 230 441ft 0kts
15-Sep-17 18:59 47.446608 -122.303350 230 441ft 0kts
15-Sep-17 19:00 47.446608 -122.303350 230 441ft 0kts
15-Sep-17 19:01 47.446608 -122.303350 230 441ft 0kts
15-Sep-17 19:02 47.446608 -122.303350 230 441ft 0kts
15-Sep-17 19:03 47.446608 -122.303350 230 441ft 0kts
15-Sep-17 19:04 47.446608 -122.303350 230 441ft 0kts
15-Sep-17 19:05 47.446608 -122.303350 230 441ft 0kts
15-Sep-17 19:06 47.446608 -122.303350 230 441ft 0kts
15-Sep-17 19:07 47.446608 -122.303350 230 441ft 0kts
15-Sep-17 19:08 47.446607 -122.303350 230 440ft 0kts
15-Sep-17 19:09 47.446607 -122.303350 230 440ft 0kts
15-Sep-17 19:10 47.446608 -122.303350 230 441ft 0kts
15-Sep-17 19:11 47.446866 -122.302897 236 440ft 2kts
15-Sep-17 19:12 47.446774 -122.302136 279 440ft 2kts
15-Sep-17 19:13 47.446758 -122.301899 272 440ft 0kts
15-Sep-17 19:14 47.446758 -122.301899 272 440ft 0kts
15-Sep-17 19:15 47.446760 -122.301941 273 440ft 1kts
15-Sep-17 19:16 47.447717 -122.304217 309 440ft 12kts
15-Sep-17 19:17 47.446451 -122.306311 181 440ft 15kts
15-Sep-17 19:18 47.441651 -122.306363 180 440ft 18kts
15-Sep-17 19:19 47.437095 -122.306415 180 440ft 22kts
15-Sep-17 19:20 47.432603 -122.305601 180 440ft 18kts
15-Sep-17 19:21 47.431059 -122.306534 283 440ft 0kts
15-Sep-17 19:22 47.431934 -122.308041 357 440ft 11kts
15-Sep-17 19:23 47.446659 -122.307903 359 441ft 148kts
15-Sep-17 19:24 47.482008 -122.308916 358 1673ft 178kts
15-Sep-17 19:25 47.520992 -122.309404 359 2402ft 228kts
15-Sep-17 19:26 47.575958 -122.307547 14 3952ft 266kts
15-Sep-17 19:27 47.612942 -122.243347 83 6256ft 275kts
15-Sep-17 19:28 47.599320 -122.151203 102 8380ft 285kts
15-Sep-17 19:29 47.585302 -122.049690 99 10422ft 298kts
15-Sep-17 19:30 47.535969 -121.965926 162 11874ft 335kts
15-Sep-17 19:31 47.452321 -121.964573 181 13851ft 348kts
15-Sep-17 19:32 47.369214 -121.968017 180 15618ft 362kts
15-Sep-17 19:33 47.279108 -121.970707 180 17708ft 376kts
15-Sep-17 19:34 47.181714 -121.973359 180 19690ft 392kts
15-Sep-17 19:35 47.079079 -121.976095 181 21555ft 407kts
15-Sep-17 19:36 46.968446 -121.979014 181 23301ft 423kts
15-Sep-17 19:37 46.850482 -121.982120 182 24897ft 439kts
15-Sep-17 19:38 46.727183 -121.985376 182 26458ft 452kts
15-Sep-17 19:39 46.603113 -121.982306 166 28209ft 455kts
15-Sep-17 19:40 46.501391 -121.880465 137 29670ft 454kts
15-Sep-17 19:41 46.399836 -121.771559 143 30983ft 458kts
15-Sep-17 19:42 46.295433 -121.667736 144 32173ft 459kts
15-Sep-17 19:43 46.190814 -121.564691 145 33232ft 461kts
15-Sep-17 19:44 46.085269 -121.461247 145 34219ft 461kts
15-Sep-17 19:45 45.979841 -121.358424 145 35221ft 459kts
15-Sep-17 19:46 45.875323 -121.256952 146 36029ft 457kts
15-Sep-17 19:47 45.770176 -121.155379 146 36619ft 458kts
15-Sep-17 19:48 45.670578 -121.043048 134 37032ft 459kts
15-Sep-17 19:49 45.576721 -120.918175 133 37077ft 467kts
15-Sep-17 19:50 45.480946 -120.791029 133 37080ft 478kts
15-Sep-17 19:51 45.382432 -120.660947 134 37088ft 489kts
15-Sep-17 19:52 45.281585 -120.528458 133 37089ft 502kts
15-Sep-17 19:53 45.179207 -120.394640 133 37087ft 515kts
15-Sep-17 19:54 45.073872 -120.257465 135 37078ft 519kts
15-Sep-17 19:55 44.967830 -120.120555 135 37096ft 521kts
15-Sep-17 19:56 44.861339 -119.983502 135 37131ft 521kts
15-Sep-17 19:57 44.754357 -119.846563 135 37160ft 521kts
15-Sep-17 19:58 44.644606 -119.715197 149 37163ft 523kts
15-Sep-17 19:59 44.514137 -119.627826 156 37166ft 523kts
15-Sep-17 20:00 44.381829 -119.545272 156 37168ft 523kts
15-Sep-17 20:01 44.249595 -119.463353 156 37171ft 523kts
15-Sep-17 20:02 44.116809 -119.381500 156 37174ft 523kts
15-Sep-17 20:03 43.985194 -119.300756 157 37171ft 523kts
15-Sep-17 20:04 43.852745 -119.219923 157 37141ft 522kts
15-Sep-17 20:05 43.720035 -119.139301 157 37141ft 523kts
15-Sep-17 20:06 43.587129 -119.058966 157 37145ft 523kts
15-Sep-17 20:07 43.454651 -118.979297 157 37148ft 524kts
15-Sep-17 20:08 43.320836 -118.899182 157 37149ft 526kts
15-Sep-17 20:09 43.187744 -118.819880 156 37152ft 528kts
15-Sep-17 20:10 43.054028 -118.740576 156 37154ft 529kts
15-Sep-17 20:11 42.937614 -118.624079 137 37144ft 522kts
15-Sep-17 20:12 42.827978 -118.498083 138 37108ft 519kts
15-Sep-17 20:13 42.717614 -118.372074 138 37111ft 520kts
15-Sep-17 20:14 42.610537 -118.250361 139 37105ft 520kts
15-Sep-17 20:15 42.518275 -118.145965 139 37108ft 520kts
15-Sep-17 20:16 42.407180 -118.020816 139 37110ft 520kts
15-Sep-17 20:17 42.296288 -117.896493 138 37113ft 520kts
15-Sep-17 20:18 42.166945 -117.752214 139 37117ft 520kts
15-Sep-17 20:19 42.055571 -117.628592 139 37118ft 521kts
15-Sep-17 20:20 41.962843 -117.526110 139 37119ft 520kts
15-Sep-17 20:21 41.832914 -117.383200 139 37109ft 520kts
15-Sep-17 20:22 41.740314 -117.281789 139 37107ft 520kts
15-Sep-17 20:23 41.628692 -117.160097 139 37113ft 520kts
15-Sep-17 20:24 41.516946 -117.038701 140 37121ft 515kts
15-Sep-17 20:25 41.407328 -116.920044 141 37129ft 505kts
15-Sep-17 20:26 41.299917 -116.804438 141 37133ft 502kts
15-Sep-17 20:27 41.191714 -116.688587 141 37133ft 502kts
15-Sep-17 20:28 41.083096 -116.572729 142 37133ft 504kts
15-Sep-17 20:29 40.974145 -116.456526 144 37136ft 507kts
15-Sep-17 20:30 40.866850 -116.342963 145 37129ft 506kts
15-Sep-17 20:31 40.757178 -116.227595 145 37116ft 506kts
15-Sep-17 20:32 40.647703 -116.112940 145 37115ft 506kts
15-Sep-17 20:33 40.537760 -115.998306 145 37118ft 506kts
15-Sep-17 20:34 40.428082 -115.884424 145 37120ft 505kts
15-Sep-17 20:35 40.318153 -115.770771 145 37122ft 505kts
15-Sep-17 20:36 40.207961 -115.657339 145 37124ft 505kts
15-Sep-17 20:37 40.097833 -115.544440 145 37127ft 505kts
15-Sep-17 20:38 39.987682 -115.432015 145 37128ft 506kts
15-Sep-17 20:39 39.878447 -115.320929 146 37118ft 505kts
15-Sep-17 20:40 39.768240 -115.209375 146 37123ft 505kts
15-Sep-17 20:41 39.658071 -115.098051 147 37127ft 500kts
15-Sep-17 20:42 39.549898 -114.989109 148 37128ft 493kts
15-Sep-17 20:43 39.442522 -114.881655 149 37131ft 491kts
15-Sep-17 20:44 39.334947 -114.774577 149 37128ft 490kts
15-Sep-17 20:45 39.227266 -114.667830 149 37132ft 490kts
15-Sep-17 20:46 39.119526 -114.561438 149 37134ft 490kts
15-Sep-17 20:47 39.011529 -114.455201 149 37137ft 490kts
15-Sep-17 20:48 38.904512 -114.350180 149 37137ft 483kts
15-Sep-17 20:49 38.798944 -114.247100 150 37126ft 481kts
15-Sep-17 20:50 38.692980 -114.144112 150 37123ft 480kts
15-Sep-17 20:51 38.586717 -114.041243 150 37075ft 481kts
15-Sep-17 20:52 38.480685 -113.938955 150 37037ft 480kts
15-Sep-17 20:53 38.374871 -113.837298 150 37037ft 480kts
15-Sep-17 20:54 38.270306 -113.737238 150 37042ft 482kts
15-Sep-17 20:55 38.162837 -113.634806 150 37071ft 487kts
15-Sep-17 20:56 38.055002 -113.532294 150 37079ft 486kts
15-Sep-17 20:57 37.947223 -113.430254 150 37081ft 486kts
15-Sep-17 20:58 37.835196 -113.350049 164 37085ft 472kts
15-Sep-17 20:59 37.721621 -113.286612 164 37072ft 471kts
15-Sep-17 21:00 37.604973 -113.222067 165 37071ft 470kts
15-Sep-17 21:01 37.488925 -113.158094 165 37070ft 470kts
15-Sep-17 21:02 37.370524 -113.093049 165 37058ft 470kts
15-Sep-17 21:03 37.250978 -113.027607 165 37074ft 471kts
15-Sep-17 21:04 37.131772 -112.962563 165 37071ft 468kts
15-Sep-17 21:05 37.013743 -112.898530 163 37070ft 459kts
15-Sep-17 21:06 36.899129 -112.836350 162 37073ft 455kts
15-Sep-17 21:07 36.785190 -112.774755 162 37075ft 454kts
15-Sep-17 21:08 36.674119 -112.714954 162 37076ft 454kts
15-Sep-17 21:09 36.564707 -112.656238 162 37075ft 454kts
15-Sep-17 21:10 36.457939 -112.599108 162 37079ft 454kts
15-Sep-17 21:11 36.344866 -112.538799 162 37131ft 454kts
15-Sep-17 21:12 36.229504 -112.477457 162 37150ft 454kts
15-Sep-17 21:13 36.113854 -112.416525 166 37141ft 451kts
15-Sep-17 21:14 35.993542 -112.409351 188 37149ft 433kts
15-Sep-17 21:15 35.874343 -112.418788 189 37154ft 433kts
15-Sep-17 21:16 35.754337 -112.429178 189 37152ft 433kts
15-Sep-17 21:17 35.635271 -112.439490 189 37132ft 420kts
15-Sep-17 21:18 35.525861 -112.448942 189 35668ft 387kts
15-Sep-17 21:19 35.419840 -112.437281 177 33600ft 381kts
15-Sep-17 21:20 35.315884 -112.417258 176 31625ft 390kts
15-Sep-17 21:21 35.212648 -112.397048 176 29575ft 394kts
15-Sep-17 21:22 35.108927 -112.374919 175 29143ft 397kts
15-Sep-17 21:23 35.001404 -112.351637 174 29123ft 393kts
15-Sep-17 21:24 34.895670 -112.328875 172 29067ft 392kts
15-Sep-17 21:25 34.789571 -112.305515 171 28186ft 397kts
15-Sep-17 21:26 34.685297 -112.282555 171 26079ft 395kts
15-Sep-17 21:27 34.580106 -112.259474 171 23888ft 380kts
15-Sep-17 21:28 34.479266 -112.237411 171 21733ft 362kts
15-Sep-17 21:29 34.391637 -112.216034 170 20275ft 357kts
15-Sep-17 21:30 34.305056 -112.187533 150 19158ft 353kts
15-Sep-17 21:31 34.221933 -112.157464 174 18560ft 356kts
15-Sep-17 21:32 34.126865 -112.143175 174 16338ft 340kts
15-Sep-17 21:33 34.035055 -112.115916 163 14144ft 342kts
15-Sep-17 21:34 33.950210 -112.081670 163 12590ft 311kts
15-Sep-17 21:35 33.874366 -112.050918 163 11241ft 290kts
15-Sep-17 21:36 33.798877 -112.020324 163 9903ft 295kts
15-Sep-17 21:37 33.731364 -111.992960 163 9030ft 263kts
15-Sep-17 21:38 33.672596 -111.969254 163 9048ft 265kts
15-Sep-17 21:39 33.616798 -111.946714 163 8771ft 263kts
15-Sep-17 21:40 33.557256 -111.922169 155 7503ft 262kts
15-Sep-17 21:41 33.528470 -111.849218 90 6102ft 276kts
15-Sep-17 21:42 33.529500 -111.760649 93 5144ft 246kts
15-Sep-17 21:43 33.491994 -111.720439 179 4994ft 212kts
15-Sep-17 21:44 33.454840 -111.738916 238 4236ft 191kts
15-Sep-17 21:45 33.435872 -111.776693 243 4050ft 183kts
15-Sep-17 21:46 33.427817 -111.824228 272 4020ft 185kts
15-Sep-17 21:47 33.428576 -111.870578 270 3286ft 170kts
15-Sep-17 21:48 33.428737 -111.915480 270 2557ft 160kts
15-Sep-17 21:49 33.428510 -111.954063 270 1913ft 148kts
15-Sep-17 21:50 33.428836 -111.991798 270 1346ft 146kts
15-Sep-17 21:51 33.428846 -112.018554 271 1142ft 44kts
15-Sep-17 21:52 33.429959 -112.020452 89 1142ft 5kts
15-Sep-17 21:53 33.429960 -112.016880 83 1142ft 20kts
15-Sep-17 21:54 33.431999 -112.015512 42 1141ft 0kts
15-Sep-17 21:55 33.432767 -112.014814 53 1142ft 12kts
15-Sep-17 21:56 33.433342 -112.012412 304 1142ft 0kts
15-Sep-17 21:57 33.433517 -112.013102 293 1141ft 0kts
15-Sep-17 21:58 33.433517 -112.013102 293 1141ft 0kts
15-Sep-17 21:59 33.433517 -112.013102 293 1141ft 0kts
15-Sep-17 22:00 33.433517 -112.013102 293 1141ft 0kts

Navigation Log

Ident Type
Flight plan parsing failed, navigation log unavailable